Greenville, SC

6:51 PM EST on January 21, 2017 (GMT -0500)
Stone Academy WeatherSTEM | | Change Station

Elev 0 ft 34.87 °N, 82.40 °W | Updated 1 minute ago

Overcast
Overcast
55.0 °F
Feels Like 55.0 °F
N
0.0
Wind Variable Wind from NE

Today
High -- | Low -- °F
--% Chance of Precip.
Yesterday
High -- | Low -- °F
Precip. -- in
Pressure 29.66 in
Visibility 6.0 miles
Clouds Overcast 500 ft
Dew Point 54 °F
Humidity 97%
Rainfall 0.94 in
Snow Depth Not available.
7:34 AM 5:47 PM
Waning Crescent, 31% visible
SPECI KGMU 212341Z 03012KT 6SM -RA BR OVC005 13/12 A2966 RMK AO2 CIG 003V009 P0001 T01330122
Pressure 29.66 in
Visibility 6.0 miles
Clouds Overcast 500 ft
Dew Point 54 °F
Humidity 97%
Rainfall 0.94 in
Snow Depth Not available.
7:34 AM 5:47 PM
Waning Crescent, 31% visible
SPECI KGMU 212341Z 03012KT 6SM -RA BR OVC005 13/12 A2966 RMK AO2 CIG 003V009 P0001 T01330122

Get Your Daily Forecast Email!

Thanks for signing up!

Be on the lookout for a verification email in your inbox.

You'll start receiving the daily forecast at 8 AM.

×

10-Day Weather Forecast

Almanac

Astronomy

Jan. 21, 2017 Rise Set
Actual Time
Civil Twilight
Nautical Twilight
Astronomical Twilight
Moon
Length of Visible Light
Length of Day
Tomorrow will be .
, % of the Moon is Illuminated

Today's Extremes

State Highs State Lows

Community

WunderPhotos

Upload Photos

1,962,540 photos uploaded!

WunderBlog® & News

Nearby

Air Quality

  Air Quality AQ Index Pollutant
Not available.

Snow Depth

Station Depth Elevation

Earthquake Activity

City Distance Mag. Time & Date
Minimum magnitude displayed is 2.5.

Coastal Water Temperatures

Place Temperature

Stations

Nearby Weather Stations

Station Location Temp. Windchill Dew Point Humidity Wind Precip. Elev Updated Type
                   

Watches & Warnings

There are currently no watches in effect.